Terminal Aerodrome Forecast
Issued by NWS Grand Forks, ND

Home | Current Version | Previous Version | Graphics & Text | Print | Product List | Glossary On
Versions: 1 2 3 4 5 6 7 8 9 10 11 12 13 14 15 16 17 18 19 20 21 22
282
FTUS43 KFGF 211122
TAFGFK
TAF
KGFK 211122Z 2112/2212 32005KT P6SM FEW060
      TEMPO 2112/2114 4SM BR
     FM212000 25004KT P6SM FEW250=

USA.gov is the U.S. government's official web portal to all federal, state and local government web resources and services.